Time;durP1;ratioP1;P1;durP2;ratioP2;P2;SDS_P1;SDS_P2;PMS_P1;PMS_P2;Temp;Humidity;BMP_temperature;BMP_pressure;BME280_temperature;BME280_humidity;BME280_pressure;Samples;Min_cycle;Max_cycle;Signal;HPM_P1;HPM_P2
2023/07/06 00:02:03;;;;;;;3.80;3.50;;;21.30;70.00;;;;;;4962180;28;20410;-93
2023/07/06 00:04:32;;;;;;;3.50;3.30;;;21.30;70.30;;;;;;4946417;28;20426;-92
2023/07/06 00:06:58;;;;;;;3.67;3.43;;;21.30;69.50;;;;;;4930341;28;20509;-92
2023/07/06 00:09:24;;;;;;;3.30;3.10;;;21.30;70.30;;;;;;4946661;28;20444;-91
2023/07/06 00:11:49;;;;;;;4.03;3.73;;;21.20;70.00;;;;;;4945936;28;20495;-91
2023/07/06 00:14:15;;;;;;;3.70;3.50;;;21.20;69.90;;;;;;4961926;28;20912;-92
2023/07/06 00:16:47;;;;;;;4.20;3.70;;;21.20;69.60;;;;;;4978582;28;20464;-93
2023/07/06 00:19:17;;;;;;;3.57;3.37;;;21.20;69.70;;;;;;4946222;28;20616;-92
2023/07/06 00:21:44;;;;;;;3.97;3.67;;;21.20;69.70;;;;;;4930475;28;20517;-91
2023/07/06 00:24:10;;;;;;;3.97;3.67;;;21.20;69.80;;;;;;4945827;28;20441;-92
2023/07/06 00:26:36;;;;;;;4.00;3.70;;;21.20;70.00;;;;;;4945711;28;20535;-92
2023/07/06 00:29:01;;;;;;;3.90;3.60;;;21.20;70.20;;;;;;4945674;28;20458;-92
2023/07/06 00:31:40;;;;;;;4.13;3.73;;;21.20;70.00;;;;;;4944600;28;20571;-91
2023/07/06 00:34:07;;;;;;;4.30;4.00;;;21.20;69.70;;;;;;4929741;28;20687;-92
2023/07/06 00:36:37;;;;;;;3.73;3.50;;;21.20;69.90;;;;;;4945596;28;20422;-92
2023/07/06 00:39:04;;;;;;;4.10;3.80;;;21.20;69.90;;;;;;4929775;28;20480;-92
2023/07/06 00:41:31;;;;;;;3.90;3.60;;;21.20;69.60;;;;;;4929727;28;20457;-91
2023/07/06 00:43:58;;;;;;;3.77;3.57;;;21.10;69.60;;;;;;4978342;28;20432;-91
2023/07/06 00:46:36;;;;;;;3.57;3.27;;;21.10;69.60;;;;;;4930017;28;20453;-93
2023/07/06 00:49:03;;;;;;;4.53;3.90;;;21.10;69.50;;;;;;4945412;28;20425;-92
2023/07/06 00:51:33;;;;;;;5.70;3.87;;;21.10;69.80;;;;;;4929410;28;21084;-91
2023/07/06 00:54:05;;;;;;;5.53;3.93;;;21.10;69.60;;;;;;4929643;28;20425;-92
2023/07/06 00:56:37;;;;;;;3.90;3.53;;;21.10;69.60;;;;;;4945671;28;20433;-92
2023/07/06 00:59:09;;;;;;;3.87;3.57;;;21.10;69.60;;;;;;4961291;28;20485;-91
2023/07/06 01:01:41;;;;;;;4.00;3.70;;;21.10;69.70;;;;;;4945017;28;20453;-93
2023/07/06 01:04:08;;;;;;;3.43;3.20;;;21.10;69.60;;;;;;4929306;28;20457;-92
2023/07/06 01:06:41;;;;;;;3.90;3.60;;;21.10;69.60;;;;;;4960821;28;20462;-92
2023/07/06 01:09:08;;;;;;;3.80;3.50;;;21.10;69.60;;;;;;4945067;28;20429;-90
2023/07/06 01:11:38;;;;;;;3.57;3.30;;;21.10;69.60;;;;;;4945063;28;20425;-92
2023/07/06 01:14:04;;;;;;;3.97;3.63;;;21.10;69.60;;;;;;4946929;28;20433;-90
2023/07/06 01:17:03;;;;;;;3.80;3.50;;;21.10;69.80;;;;;;4935424;28;20457;-92
2023/07/06 01:19:57;;;;;;;3.67;3.47;;;21.00;69.70;;;;;;4930031;28;20437;-91
2023/07/06 01:23:27;;;;;;;3.37;3.17;;;21.00;69.60;;;;;;4929125;28;20461;-92
2023/07/06 01:26:30;;;;;;;4.60;4.07;;;21.00;69.70;;;;;;4884396;29;20934;-92
2023/07/06 01:29:15;;;;;;;3.83;3.63;;;21.00;69.70;;;;;;4884683;29;20453;-91
2023/07/06 01:31:52;;;;;;;4.37;4.03;;;21.00;69.80;;;;;;4944001;28;20925;-91
2023/07/06 01:34:42;;;;;;;4.00;3.70;;;21.00;69.80;;;;;;4929466;28;20405;-91
2023/07/06 01:37:24;;;;;;;4.10;3.70;;;20.90;69.80;;;;;;4944565;28;20879;-90
2023/07/06 01:39:52;;;;;;;4.00;3.70;;;20.90;69.80;;;;;;4944736;28;20448;-93
2023/07/06 01:42:30;;;;;;;4.20;3.90;;;20.90;69.80;;;;;;4928924;28;20607;-91
2023/07/06 01:45:07;;;;;;;4.60;4.20;;;20.90;69.80;;;;;;4945162;28;20448;-91
2023/07/06 01:47:38;;;;;;;3.70;3.50;;;20.90;69.80;;;;;;4928600;28;20523;-92
2023/07/06 01:50:06;;;;;;;4.93;3.80;;;20.90;69.90;;;;;;4928806;28;20938;-91
2023/07/06 01:52:44;;;;;;;3.60;3.40;;;20.90;69.90;;;;;;4944545;28;20432;-91
2023/07/06 01:55:24;;;;;;;4.00;3.80;;;20.90;69.90;;;;;;4928804;28;20511;-90
2023/07/06 01:58:29;;;;;;;3.60;3.40;;;20.90;69.90;;;;;;4928719;28;20452;-92
2023/07/06 02:01:09;;;;;;;4.13;3.83;;;20.90;69.90;;;;;;4944299;28;20885;-91
2023/07/06 02:03:38;;;;;;;4.03;3.73;;;20.90;70.00;;;;;;4928485;28;20453;-91
2023/07/06 02:06:08;;;;;;;4.23;3.83;;;20.90;70.00;;;;;;4944274;28;20525;-90
2023/07/06 02:08:41;;;;;;;4.40;4.17;;;20.90;70.00;;;;;;4930441;28;20579;-90
2023/07/06 02:11:13;;;;;;;3.73;3.43;;;20.90;70.00;;;;;;4928957;28;20439;-91
2023/07/06 02:13:39;;;;;;;4.00;3.70;;;20.80;69.80;;;;;;4928429;28;20471;-91
2023/07/06 02:16:05;;;;;;;4.10;3.67;;;20.80;69.90;;;;;;4960026;28;20406;-91
2023/07/06 02:18:33;;;;;;;4.43;4.13;;;20.80;70.50;;;;;;4944168;28;20773;-91
2023/07/06 02:21:01;;;;;;;5.17;4.77;;;20.90;70.30;;;;;;4959878;28;20488;-91
2023/07/06 02:23:27;;;;;;;4.07;3.80;;;20.80;70.00;;;;;;4928325;28;20438;-91
2023/07/06 02:25:56;;;;;;;3.90;3.70;;;20.80;69.90;;;;;;4943947;28;20512;-90
2023/07/06 02:28:23;;;;;;;3.63;3.40;;;20.80;69.90;;;;;;4943626;28;20547;-92
2023/07/06 02:30:50;;;;;;;4.03;3.73;;;20.80;70.00;;;;;;4944060;28;20555;-91
2023/07/06 02:33:17;;;;;;;4.70;4.17;;;20.80;70.00;;;;;;4943972;28;20493;-91
2023/07/06 02:35:46;;;;;;;3.90;3.70;;;20.80;70.00;;;;;;4928311;28;20500;-91
2023/07/06 02:38:15;;;;;;;4.13;3.67;;;20.80;70.00;;;;;;4928171;28;20476;-91
2023/07/06 02:40:41;;;;;;;4.10;3.80;;;20.70;69.80;;;;;;4928475;28;20499;-92
2023/07/06 02:43:21;;;;;;;4.77;4.37;;;20.70;69.90;;;;;;4928630;28;20548;-91
2023/07/06 02:45:48;;;;;;;3.80;3.60;;;20.70;69.90;;;;;;4927948;28;20424;-91
2023/07/06 02:48:15;;;;;;;3.70;3.50;;;20.70;70.00;;;;;;4943411;28;20492;-91
2023/07/06 02:50:43;;;;;;;4.30;4.00;;;20.70;69.70;;;;;;4943785;28;20510;-92
2023/07/06 02:53:09;;;;;;;4.07;3.77;;;20.70;69.80;;;;;;4976682;28;20886;-92
2023/07/06 02:55:34;;;;;;;4.93;4.50;;;20.70;69.80;;;;;;4946242;28;20436;-91
2023/07/06 02:58:02;;;;;;;4.17;3.87;;;20.70;70.50;;;;;;4947450;28;20280;-91
2023/07/06 03:00:30;;;;;;;4.27;3.97;;;20.70;70.00;;;;;;4931417;28;20531;-92
2023/07/06 03:02:56;;;;;;;4.90;4.50;;;20.70;69.70;;;;;;4963115;28;20413;-91
2023/07/06 03:05:23;;;;;;;4.70;4.33;;;20.70;69.90;;;;;;4947092;28;20415;-91
2023/07/06 03:07:54;;;;;;;4.70;4.33;;;20.60;69.60;;;;;;4931283;28;20476;-91
2023/07/06 03:10:22;;;;;;;4.17;3.80;;;20.60;69.60;;;;;;4931375;28;20504;-92
2023/07/06 03:12:48;;;;;;;4.63;4.27;;;20.60;69.50;;;;;;4947008;28;20473;-91
2023/07/06 03:15:17;;;;;;;4.67;4.37;;;20.60;69.50;;;;;;4946997;28;20425;-91
2023/07/06 03:17:48;;;;;;;3.97;3.77;;;20.60;69.40;;;;;;4931461;28;20877;-91
2023/07/06 03:20:18;;;;;;;4.63;4.33;;;20.60;69.40;;;;;;4963067;28;20504;-92
2023/07/06 03:22:51;;;;;;;4.37;3.90;;;20.60;69.40;;;;;;4931323;28;20901;-91
2023/07/06 03:25:25;;;;;;;5.83;4.20;;;20.60;69.50;;;;;;4946480;28;20460;-90
2023/07/06 03:27:51;;;;;;;4.33;3.87;;;20.60;69.40;;;;;;4930031;28;20482;-91
2023/07/06 03:30:22;;;;;;;7.10;4.70;;;20.60;69.40;;;;;;4961147;28;20441;-92
2023/07/06 03:32:49;;;;;;;4.17;3.73;;;20.60;69.40;;;;;;4944842;28;20505;-90
2023/07/06 03:35:15;;;;;;;4.13;3.77;;;20.50;69.20;;;;;;4945937;28;20454;-92
2023/07/06 03:37:43;;;;;;;4.27;3.97;;;20.50;69.20;;;;;;4945794;28;21053;-91
2023/07/06 03:40:12;;;;;;;4.30;3.83;;;20.50;69.20;;;;;;4930394;28;20464;-90
2023/07/06 03:42:41;;;;;;;3.87;3.57;;;20.50;69.20;;;;;;4943906;28;20481;-79
2023/07/06 03:45:10;;;;;;;5.03;3.90;;;20.50;69.20;;;;;;4959297;28;20428;-79
2023/07/06 03:47:42;;;;;;;3.93;3.63;;;20.50;69.20;;;;;;4943397;28;20485;-80
2023/07/06 03:50:09;;;;;;;4.10;3.80;;;20.50;69.20;;;;;;4943129;28;20433;-79
2023/07/06 03:52:39;;;;;;;4.30;3.90;;;20.50;69.20;;;;;;4943194;28;20547;-79
2023/07/06 03:55:12;;;;;;;4.00;3.70;;;20.40;69.10;;;;;;4943580;28;20598;-79
2023/07/06 03:57:45;;;;;;;4.00;3.70;;;20.40;69.10;;;;;;4959888;28;20503;-79
2023/07/06 04:00:21;;;;;;;5.27;4.57;;;20.40;69.00;;;;;;4961806;28;20462;-79
2023/07/06 04:02:55;;;;;;;4.47;4.17;;;20.40;69.10;;;;;;4978308;28;20538;-79
2023/07/06 04:05:31;;;;;;;5.67;4.23;;;20.40;69.10;;;;;;4981768;28;20446;-80
2023/07/06 04:07:57;;;;;;;4.70;4.40;;;20.40;69.10;;;;;;4982221;28;20462;-79
2023/07/06 04:10:23;;;;;;;4.23;3.90;;;20.40;69.00;;;;;;4985401;28;20453;-79
2023/07/06 04:12:50;;;;;;;3.83;3.63;;;20.40;69.10;;;;;;4978680;28;20464;-79
2023/07/06 04:15:17;;;;;;;4.03;3.63;;;20.30;69.10;;;;;;4943628;28;20880;-79
2023/07/06 04:17:48;;;;;;;5.50;3.63;;;20.40;69.10;;;;;;4960075;28;20515;-79
2023/07/06 04:20:19;;;;;;;4.73;4.23;;;20.30;69.00;;;;;;4958761;28;20516;-79
2023/07/06 04:22:48;;;;;;;4.47;4.07;;;20.30;69.00;;;;;;4972700;28;20567;-79
2023/07/06 04:25:19;;;;;;;8.20;4.10;;;20.30;69.00;;;;;;4956128;29;20869;-79
2023/07/06 04:27:49;;;;;;;4.17;3.40;;;20.30;69.10;;;;;;4961880;28;20478;-79
2023/07/06 04:30:16;;;;;;;4.10;3.70;;;20.30;69.00;;;;;;4940969;28;20503;-79
2023/07/06 04:32:48;;;;;;;5.40;4.60;;;20.30;69.10;;;;;;4958279;28;20568;-79
2023/07/06 04:35:18;;;;;;;4.40;3.60;;;20.30;69.10;;;;;;4975706;28;20483;-79
2023/07/06 04:37:45;;;;;;;4.57;3.50;;;20.30;69.10;;;;;;4942709;28;20420;-78
2023/07/06 04:40:13;;;;;;;5.40;4.07;;;20.30;69.10;;;;;;4942356;28;20496;-78
2023/07/06 04:42:42;;;;;;;4.23;3.90;;;20.30;69.10;;;;;;4938922;29;20426;-78
2023/07/06 04:45:11;;;;;;;4.23;3.83;;;20.20;69.00;;;;;;4965404;28;20456;-79
2023/07/06 04:47:44;;;;;;;3.83;3.50;;;20.20;68.90;;;;;;4960865;28;20464;-79
2023/07/06 04:50:17;;;;;;;8.90;4.40;;;20.30;69.10;;;;;;4965760;28;20422;-78
2023/07/06 04:52:44;;;;;;;4.50;4.07;;;20.20;68.90;;;;;;4946554;28;20445;-79
2023/07/06 04:55:10;;;;;;;4.70;4.30;;;20.20;68.90;;;;;;4975239;28;20437;-78
2023/07/06 04:57:37;;;;;;;5.67;4.03;;;20.20;69.00;;;;;;4926237;28;20606;-78
2023/07/06 05:00:18;;;;;;;4.37;3.80;;;20.20;68.90;;;;;;4942321;28;20440;-78
2023/07/06 05:02:47;;;;;;;3.43;3.10;;;20.20;68.90;;;;;;4958757;28;20562;-79
2023/07/06 05:05:20;;;;;;;4.07;3.77;;;20.20;69.00;;;;;;4975168;28;20403;-78
2023/07/06 05:07:48;;;;;;;4.70;3.40;;;20.20;69.00;;;;;;4975199;28;20459;-78
2023/07/06 05:10:15;;;;;;;3.40;3.20;;;20.20;69.00;;;;;;4975184;28;20415;-78
2023/07/06 05:12:44;;;;;;;4.00;3.40;;;20.20;68.90;;;;;;4957591;28;20419;-78
2023/07/06 05:15:14;;;;;;;4.43;4.10;;;20.10;68.90;;;;;;4974826;28;20561;-78
2023/07/06 05:17:40;;;;;;;4.10;3.77;;;20.10;68.80;;;;;;4941249;28;20489;-78
2023/07/06 05:20:08;;;;;;;4.23;3.80;;;20.20;69.00;;;;;;4974340;28;20456;-79
2023/07/06 05:22:39;;;;;;;3.97;3.67;;;20.10;68.90;;;;;;4957710;28;20454;-78
2023/07/06 05:25:08;;;;;;;6.40;4.17;;;20.10;68.80;;;;;;4941913;28;20408;-80
2023/07/06 05:27:37;;;;;;;5.00;3.90;;;20.10;68.90;;;;;;4974392;28;20483;-78
2023/07/06 05:30:07;;;;;;;3.53;3.20;;;20.10;68.80;;;;;;4974487;28;20419;-78
2023/07/06 05:32:35;;;;;;;6.37;4.00;;;20.10;68.90;;;;;;4956919;28;20487;-78
2023/07/06 05:35:01;;;;;;;5.77;3.60;;;20.10;68.80;;;;;;4974472;28;20444;-79
2023/07/06 05:37:27;;;;;;;3.93;3.53;;;20.10;68.90;;;;;;4941153;28;21032;-79
2023/07/06 05:39:55;;;;;;;3.90;3.60;;;20.10;68.80;;;;;;4957639;28;20457;-78
2023/07/06 05:42:21;;;;;;;4.23;3.60;;;20.10;68.70;;;;;;4957283;28;20443;-78
2023/07/06 05:44:50;;;;;;;4.63;4.03;;;20.10;68.80;;;;;;4941135;28;20545;-78
2023/07/06 05:47:18;;;;;;;5.20;3.90;;;20.10;68.80;;;;;;4974226;28;20201;-79
2023/07/06 05:49:44;;;;;;;4.07;3.67;;;20.10;68.80;;;;;;4957321;28;20440;-78
2023/07/06 05:52:10;;;;;;;5.33;4.27;;;20.10;68.80;;;;;;4956971;28;20776;-78
2023/07/06 05:54:36;;;;;;;3.90;3.60;;;20.10;68.80;;;;;;4974319;28;20218;-78
2023/07/06 05:57:03;;;;;;;4.20;3.90;;;20.10;68.70;;;;;;4956377;28;20836;-78
2023/07/06 05:59:30;;;;;;;7.23;3.93;;;20.10;68.70;;;;;;4959357;28;20506;-79
2023/07/06 06:02:00;;;;;;;3.97;3.63;;;20.00;68.70;;;;;;4965232;28;20469;-79
2023/07/06 06:04:26;;;;;;;4.43;3.97;;;20.00;68.70;;;;;;4950816;28;20484;-79
2023/07/06 06:06:56;;;;;;;5.20;4.67;;;20.00;68.60;;;;;;4935835;28;20503;-79
2023/07/06 06:09:25;;;;;;;4.00;3.60;;;20.00;68.70;;;;;;4956817;28;20430;-79
2023/07/06 06:11:52;;;;;;;5.30;3.37;;;20.00;68.70;;;;;;4956337;28;20846;-82
2023/07/06 06:14:18;;;;;;;4.10;3.70;;;20.00;68.60;;;;;;4973629;28;20585;-79
2023/07/06 06:16:44;;;;;;;3.80;3.23;;;20.00;68.60;;;;;;4956797;28;20464;-79
2023/07/06 06:19:10;;;;;;;3.37;3.07;;;20.00;68.70;;;;;;4973846;28;20485;-78
2023/07/06 06:21:38;;;;;;;5.20;3.83;;;20.00;68.80;;;;;;4940556;28;20207;-79
2023/07/06 06:24:08;;;;;;;6.87;3.80;;;20.00;68.80;;;;;;4940849;28;20450;-79
2023/07/06 06:26:35;;;;;;;3.83;3.37;;;20.00;68.80;;;;;;4973423;28;20852;-79
2023/07/06 06:29:01;;;;;;;4.80;3.70;;;20.00;68.80;;;;;;4958547;28;20502;-79
2023/07/06 06:31:28;;;;;;;4.27;3.87;;;20.00;69.00;;;;;;4977396;28;20471;-79
2023/07/06 06:33:54;;;;;;;5.90;3.50;;;20.00;69.10;;;;;;4944210;28;20570;-79
2023/07/06 06:36:22;;;;;;;4.53;3.50;;;20.00;69.10;;;;;;4944662;28;20423;-79
2023/07/06 06:38:48;;;;;;;8.90;3.97;;;20.00;69.10;;;;;;4977365;28;20428;-79
2023/07/06 06:41:15;;;;;;;5.83;4.10;;;20.00;69.10;;;;;;4960132;28;20446;-79
2023/07/06 06:43:44;;;;;;;3.63;3.33;;;20.00;69.10;;;;;;4942601;28;20440;-79
2023/07/06 06:46:12;;;;;;;4.97;3.63;;;20.00;69.20;;;;;;4963768;28;20908;-77
2023/07/06 06:48:41;;;;;;;6.87;4.03;;;20.00;69.30;;;;;;4960136;28;20517;-80
2023/07/06 06:51:12;;;;;;;4.57;4.10;;;19.90;69.30;;;;;;4959993;28;20430;-79
2023/07/06 06:53:40;;;;;;;6.57;4.20;;;19.90;69.30;;;;;;4959853;28;21066;-77
2023/07/06 06:56:09;;;;;;;7.10;3.87;;;19.90;70.20;;;;;;4944254;28;20418;-78
2023/07/06 06:58:39;;;;;;;3.97;3.23;;;19.90;69.40;;;;;;4962703;28;20423;-78
2023/07/06 07:01:07;;;;;;;4.27;3.37;;;19.90;69.50;;;;;;4950531;28;20482;-78
2023/07/06 07:03:34;;;;;;;4.77;3.73;;;19.90;69.60;;;;;;4960241;28;20441;-78
2023/07/06 07:06:11;;;;;;;6.07;4.40;;;20.00;69.80;;;;;;4945210;28;20530;-79
2023/07/06 07:08:43;;;;;;;5.00;3.67;;;19.90;69.70;;;;;;4959856;28;20485;-78
2023/07/06 07:11:10;;;;;;;4.63;3.63;;;20.00;70.00;;;;;;4959925;28;20450;-78
2023/07/06 07:13:41;;;;;;;5.50;3.87;;;19.90;69.80;;;;;;4958981;28;20414;-78
2023/07/06 07:16:14;;;;;;;6.17;4.63;;;20.00;69.80;;;;;;4960074;28;20415;-77
2023/07/06 07:18:45;;;;;;;4.20;3.80;;;20.00;70.00;;;;;;4976510;28;20434;-78
2023/07/06 07:21:13;;;;;;;6.77;3.70;;;20.00;70.00;;;;;;4959384;28;20956;-78
2023/07/06 07:23:44;;;;;;;4.30;3.90;;;20.00;70.10;;;;;;4943970;28;20531;-78
2023/07/06 07:26:16;;;;;;;5.47;4.50;;;20.00;70.20;;;;;;4959367;28;20427;-78
2023/07/06 07:28:48;;;;;;;4.93;4.43;;;20.00;70.30;;;;;;4959163;28;20486;-78
2023/07/06 07:31:17;;;;;;;7.33;4.40;;;20.00;70.10;;;;;;4976418;28;20469;-78
2023/07/06 07:33:44;;;;;;;7.07;4.40;;;20.00;70.10;;;;;;4943599;28;20447;-78
2023/07/06 07:36:12;;;;;;;4.97;4.47;;;20.00;70.20;;;;;;4939975;29;20537;-78
2023/07/06 07:38:38;;;;;;;5.13;4.40;;;20.00;70.30;;;;;;4957014;29;20486;-79
2023/07/06 07:41:06;;;;;;;6.60;3.80;;;20.00;70.60;;;;;;4956672;28;21142;-78
2023/07/06 07:43:34;;;;;;;4.63;4.17;;;20.00;70.50;;;;;;4942261;28;20455;-77
2023/07/06 07:46:05;;;;;;;6.43;4.80;;;20.00;70.50;;;;;;4976364;28;20423;-77
2023/07/06 07:48:38;;;;;;;4.60;4.20;;;20.10;70.60;;;;;;4958805;28;20458;-78
2023/07/06 07:51:07;;;;;;;6.57;4.20;;;20.10;70.80;;;;;;4959468;28;20462;-78
2023/07/06 07:53:36;;;;;;;5.00;4.50;;;20.10;70.70;;;;;;4975842;28;20445;-78
2023/07/06 07:56:04;;;;;;;4.73;3.83;;;20.10;70.80;;;;;;4975862;28;20445;-77
2023/07/06 07:58:36;;;;;;;4.23;3.83;;;20.10;70.80;;;;;;4942511;28;20547;-78
2023/07/06 08:01:06;;;;;;;4.83;4.33;;;20.10;70.70;;;;;;4958306;28;20748;-78
2023/07/06 08:03:38;;;;;;;6.63;4.20;;;20.10;71.20;;;;;;4958476;28;20896;-80
2023/07/06 08:06:08;;;;;;;5.57;4.60;;;20.10;71.00;;;;;;4942693;28;20440;-79
2023/07/06 08:08:36;;;;;;;4.83;4.30;;;20.10;71.20;;;;;;4975519;28;20482;-79
2023/07/06 08:11:05;;;;;;;7.50;4.17;;;20.10;71.30;;;;;;4939292;29;20518;-78
2023/07/06 08:13:32;;;;;;;6.53;4.70;;;20.20;71.30;;;;;;4972839;28;20422;-80
2023/07/06 08:16:00;;;;;;;5.87;4.60;;;20.20;72.30;;;;;;4958555;28;20785;-80
2023/07/06 08:18:28;;;;;;;5.13;4.10;;;20.20;71.30;;;;;;4937251;29;20899;-80
2023/07/06 08:20:54;;;;;;;7.73;4.20;;;20.20;71.40;;;;;;4939482;29;20493;-81
2023/07/06 08:23:22;;;;;;;5.67;4.50;;;20.20;71.40;;;;;;4954666;28;20519;-80
2023/07/06 08:25:52;;;;;;;5.40;4.90;;;20.30;71.30;;;;;;4975423;28;20782;-80
2023/07/06 08:28:31;;;;;;;9.23;5.07;;;20.30;71.30;;;;;;4976257;28;20521;-80
2023/07/06 08:31:03;;;;;;;6.60;4.90;;;20.30;71.10;;;;;;4968915;28;20425;-80
2023/07/06 08:33:35;;;;;;;9.37;5.37;;;20.30;71.10;;;;;;4962283;28;20534;-80
2023/07/06 08:36:04;;;;;;;6.63;5.10;;;20.30;71.30;;;;;;4958635;28;20478;-81
2023/07/06 08:38:33;;;;;;;5.40;4.90;;;20.30;71.50;;;;;;4975498;28;20397;-79
2023/07/06 08:41:03;;;;;;;4.70;3.87;;;20.30;71.50;;;;;;4958181;28;20454;-79
2023/07/06 08:43:32;;;;;;;5.13;4.63;;;20.30;71.50;;;;;;4958565;28;20435;-81
2023/07/06 08:46:04;;;;;;;7.57;5.20;;;20.40;71.50;;;;;;4957929;28;20530;-80
2023/07/06 08:48:34;;;;;;;6.53;4.90;;;20.40;71.50;;;;;;4926367;28;20464;-81
2023/07/06 08:51:23;;;;;;;8.03;4.53;;;20.40;71.40;;;;;;4975787;28;20407;-80
2023/07/06 08:53:54;;;;;;;4.50;4.10;;;20.40;71.50;;;;;;4957222;28;20455;-80
2023/07/06 08:56:25;;;;;;;4.90;4.50;;;20.50;71.80;;;;;;4957984;28;20415;-81
2023/07/06 08:58:54;;;;;;;5.87;4.27;;;20.50;71.80;;;;;;4957985;28;20547;-80
2023/07/06 09:01:23;;;;;;;4.60;3.97;;;20.50;71.80;;;;;;4974973;28;20411;-80
2023/07/06 09:04:00;;;;;;;5.03;3.97;;;20.50;71.80;;;;;;4957959;28;20423;-80
2023/07/06 09:06:28;;;;;;;3.97;3.67;;;20.50;71.90;;;;;;4974761;28;20531;-81
2023/07/06 09:09:03;;;;;;;4.90;4.13;;;20.60;71.90;;;;;;4958045;28;20404;-80
2023/07/06 09:11:34;;;;;;;5.77;3.93;;;20.60;71.90;;;;;;4938601;29;20505;-80
2023/07/06 09:14:16;;;;;;;4.00;3.60;;;20.60;71.90;;;;;;5086497;27;20633;-76
2023/07/06 09:17:03;;;;;;;8.57;4.30;;;20.60;71.80;;;;;;5051225;28;20431;-75
2023/07/06 09:19:32;;;;;;;4.17;3.77;;;20.70;72.00;;;;;;5083460;28;20443;-76
2023/07/06 09:22:00;;;;;;;6.03;4.13;;;20.70;71.80;;;;;;5066595;28;20427;-77
2023/07/06 09:24:27;;;;;;;4.80;4.17;;;20.70;71.60;;;;;;5066838;28;20426;-75
2023/07/06 09:27:00;;;;;;;4.77;4.40;;;20.80;71.70;;;;;;5084286;28;20436;-75
2023/07/06 09:29:32;;;;;;;6.97;4.50;;;20.80;71.50;;;;;;5067488;28;20478;-76
2023/07/06 09:32:12;;;;;;;6.70;4.20;;;20.80;71.40;;;;;;5067798;28;21008;-75
2023/07/06 09:34:44;;;;;;;6.90;4.93;;;20.80;71.30;;;;;;5085253;28;20446;-76
2023/07/06 09:37:12;;;;;;;5.67;5.07;;;20.80;71.10;;;;;;5084235;28;20467;-76
2023/07/06 09:39:41;;;;;;;5.00;4.30;;;20.90;71.20;;;;;;5085345;28;20542;-76
2023/07/06 09:42:12;;;;;;;6.20;4.60;;;20.90;71.20;;;;;;5085999;28;20454;-76
2023/07/06 09:44:41;;;;;;;5.30;4.90;;;20.90;71.40;;;;;;5068001;28;20436;-76
2023/07/06 09:47:13;;;;;;;8.03;4.63;;;20.90;71.50;;;;;;5067973;28;20436;-77
2023/07/06 09:49:47;;;;;;;4.70;4.30;;;21.00;71.50;;;;;;5051568;28;20458;-76
2023/07/06 09:52:16;;;;;;;5.00;4.50;;;21.00;71.30;;;;;;5084425;28;20516;-77
2023/07/06 09:55:10;;;;;;;5.90;4.43;;;21.00;71.10;;;;;;5084673;28;20422;-77
2023/07/06 09:57:36;;;;;;;4.90;4.47;;;21.10;71.30;;;;;;5085629;28;20542;-76
2023/07/06 10:00:03;;;;;;;4.60;4.20;;;21.10;71.10;;;;;;5083286;28;20430;-75
2023/07/06 10:02:56;;;;;;;5.30;3.93;;;21.10;70.90;;;;;;5083482;28;20490;-76
2023/07/06 10:05:27;;;;;;;5.80;4.90;;;21.10;70.70;;;;;;5085338;28;20780;-76
2023/07/06 10:07:59;;;;;;;3.73;3.43;;;21.20;70.90;;;;;;5083645;28;20542;-76
2023/07/06 10:10:34;;;;;;;4.97;4.47;;;21.20;70.70;;;;;;5067380;28;20573;-76
2023/07/06 10:13:17;;;;;;;5.10;4.67;;;21.20;70.40;;;;;;5068225;28;20478;-76
2023/07/06 10:16:08;;;;;;;4.73;4.30;;;21.30;70.20;;;;;;5084933;28;20446;-77
2023/07/06 10:19:01;;;;;;;4.40;4.07;;;21.30;70.00;;;;;;5084654;28;20803;-77
2023/07/06 10:21:39;;;;;;;4.37;4.00;;;21.40;70.00;;;;;;5085122;28;20432;-76
2023/07/06 10:24:20;;;;;;;4.53;3.57;;;21.40;69.80;;;;;;5069198;28;20448;-75
2023/07/06 10:26:55;;;;;;;4.13;3.83;;;21.40;69.50;;;;;;5052076;28;20449;-74
2023/07/06 10:29:41;;;;;;;4.60;4.20;;;21.50;69.60;;;;;;5051849;28;20973;-75
2023/07/06 10:32:13;;;;;;;5.30;4.80;;;21.50;69.40;;;;;;5062647;28;20478;-74
2023/07/06 10:35:02;;;;;;;5.40;4.20;;;21.50;69.30;;;;;;5070906;28;20428;-73
2023/07/06 10:37:34;;;;;;;4.03;3.80;;;21.60;69.30;;;;;;5071154;28;20435;-75
2023/07/06 10:40:20;;;;;;;4.10;3.80;;;21.60;69.20;;;;;;5069031;28;20964;-74
2023/07/06 10:42:51;;;;;;;3.97;3.67;;;21.70;69.10;;;;;;5033594;28;20480;-74
2023/07/06 10:45:35;;;;;;;4.90;4.57;;;21.70;68.80;;;;;;5047553;28;20424;-73
2023/07/06 10:48:10;;;;;;;4.40;4.10;;;21.70;68.60;;;;;;5049752;28;20970;-73
2023/07/06 10:50:51;;;;;;;4.57;4.03;;;21.80;68.50;;;;;;5049420;28;20956;-73
2023/07/06 10:53:37;;;;;;;4.60;4.20;;;21.80;68.40;;;;;;5050892;28;20541;-72
2023/07/06 10:56:11;;;;;;;4.43;4.10;;;21.90;68.50;;;;;;5050120;28;20432;-71
2023/07/06 10:59:02;;;;;;;4.73;4.33;;;21.90;68.60;;;;;;5048975;28;20782;-72
2023/07/06 11:01:37;;;;;;;4.43;4.03;;;22.00;68.50;;;;;;5020839;28;20424;-72
2023/07/06 11:04:41;;;;;;;3.83;3.53;;;22.00;68.40;;;;;;5054214;28;20468;-71
2023/07/06 11:07:35;;;;;;;5.10;4.20;;;22.00;68.30;;;;;;5067296;28;20447;-72
2023/07/06 11:10:14;;;;;;;4.60;4.30;;;22.00;67.90;;;;;;5059677;28;20456;-72
2023/07/06 11:13:09;;;;;;;4.60;4.20;;;22.10;67.60;;;;;;5068235;28;20498;-72
2023/07/06 11:15:56;;;;;;;4.80;4.40;;;22.10;67.40;;;;;;5069197;28;20443;-72
2023/07/06 11:18:25;;;;;;;4.70;4.27;;;22.10;67.00;;;;;;5063414;28;20459;-72
2023/07/06 11:21:28;;;;;;;4.20;3.83;;;22.20;67.00;;;;;;5058094;28;20425;-71
2023/07/06 11:24:09;;;;;;;4.57;4.27;;;22.20;66.90;;;;;;5047067;28;20443;-72
2023/07/06 11:26:53;;;;;;;5.00;4.60;;;22.20;66.50;;;;;;5039381;28;20460;-72
2023/07/06 11:29:22;;;;;;;4.87;4.47;;;22.30;66.50;;;;;;5067380;28;20421;-72
2023/07/06 11:31:48;;;;;;;4.27;3.80;;;22.30;66.20;;;;;;5050457;28;20418;-72
2023/07/06 11:34:47;;;;;;;4.90;4.03;;;22.40;66.00;;;;;;5059296;28;20443;-73
2023/07/06 11:37:54;;;;;;;4.40;4.03;;;22.40;65.80;;;;;;5048075;28;20579;-72
2023/07/06 11:40:29;;;;;;;3.60;3.40;;;22.50;65.90;;;;;;5066094;28;20436;-72
2023/07/06 11:43:04;;;;;;;4.10;3.80;;;22.50;65.70;;;;;;5068717;28;20420;-72
2023/07/06 11:45:50;;;;;;;4.23;3.90;;;22.50;65.30;;;;;;5077854;22;20512;-72
2023/07/06 11:48:19;;;;;;;4.80;4.33;;;22.60;65.30;;;;;;5004973;28;20467;-72
2023/07/06 11:50:46;;;;;;;4.43;4.10;;;22.60;64.80;;;;;;5009473;28;20416;-72
2023/07/06 11:53:53;;;;;;;4.20;3.93;;;22.60;64.70;;;;;;5007895;28;20467;-72
2023/07/06 11:56:18;;;;;;;3.90;3.60;;;22.70;64.60;;;;;;4990585;28;20447;-72
2023/07/06 11:59:01;;;;;;;4.17;3.87;;;22.70;64.50;;;;;;5001563;28;20905;-72
2023/07/06 12:01:45;;;;;;;4.30;4.00;;;22.70;64.60;;;;;;4990167;28;20528;-72
2023/07/06 12:04:13;;;;;;;5.50;5.03;;;22.70;64.60;;;;;;4998184;28;20455;-72
2023/07/06 12:06:42;;;;;;;4.60;4.20;;;22.80;64.60;;;;;;5009212;28;20980;-72
2023/07/06 12:09:08;;;;;;;4.73;4.43;;;22.80;64.20;;;;;;4995098;28;20923;-72
2023/07/06 12:11:40;;;;;;;4.33;3.93;;;22.90;64.50;;;;;;4989317;28;20444;-72
2023/07/06 12:14:20;;;;;;;4.53;4.23;;;22.90;64.20;;;;;;4995796;28;20455;-72
2023/07/06 12:16:51;;;;;;;5.17;4.70;;;22.90;63.90;;;;;;5009314;28;20448;-71
2023/07/06 12:19:19;;;;;;;4.43;4.13;;;22.90;63.70;;;;;;4977102;28;20425;-72
2023/07/06 12:21:53;;;;;;;5.20;4.70;;;23.00;63.90;;;;;;4974834;28;20966;-73
2023/07/06 12:24:23;;;;;;;4.80;4.40;;;23.00;63.30;;;;;;5008078;28;20550;-72
2023/07/06 12:26:55;;;;;;;5.90;5.40;;;23.00;63.20;;;;;;5023958;28;20428;-72
2023/07/06 12:29:27;;;;;;;5.83;5.07;;;23.00;62.60;;;;;;5009830;28;20427;-72
2023/07/06 12:32:00;;;;;;;5.23;4.83;;;23.10;62.70;;;;;;5008386;28;20400;-72
2023/07/06 12:34:30;;;;;;;5.20;4.80;;;23.10;62.60;;;;;;5007758;28;20450;-72
2023/07/06 12:37:02;;;;;;;5.77;5.37;;;23.10;62.30;;;;;;4991955;28;20491;-72
2023/07/06 12:39:35;;;;;;;5.53;5.13;;;23.20;62.50;;;;;;5008323;28;20436;-72
2023/07/06 12:42:07;;;;;;;5.67;4.87;;;23.20;62.60;;;;;;5009522;28;20428;-71
2023/07/06 12:44:33;;;;;;;6.10;5.60;;;23.20;63.50;;;;;;5008204;28;20906;-72
2023/07/06 12:47:18;;;;;;;6.77;6.17;;;23.30;62.80;;;;;;5007777;28;20552;-73
2023/07/06 12:49:50;;;;;;;6.00;5.50;;;23.30;62.80;;;;;;4992036;28;20452;-72
2023/07/06 12:52:17;;;;;;;5.70;5.20;;;23.30;62.60;;;;;;5008291;28;20474;-74
2023/07/06 12:54:52;;;;;;;4.80;4.43;;;23.40;62.20;;;;;;5006332;28;20544;-72
2023/07/06 12:57:23;;;;;;;5.77;5.17;;;23.40;62.20;;;;;;4989900;28;20516;-72
2023/07/06 12:59:58;;;;;;;5.77;5.00;;;23.40;61.90;;;;;;5005100;28;20413;-72
2023/07/06 13:02:36;;;;;;;5.07;4.57;;;23.50;61.90;;;;;;4989548;28;20487;-71
2023/07/06 13:05:16;;;;;;;5.23;4.77;;;23.50;61.90;;;;;;4989459;28;20436;-72
2023/07/06 13:07:43;;;;;;;5.30;4.80;;;23.50;61.20;;;;;;4988155;28;20449;-72
2023/07/06 13:10:19;;;;;;;5.07;4.67;;;23.50;61.50;;;;;;4988074;28;20782;-72
2023/07/06 13:12:48;;;;;;;4.27;3.87;;;23.60;61.40;;;;;;4988180;28;20496;-72
2023/07/06 13:15:23;;;;;;;4.60;4.30;;;23.60;61.30;;;;;;5003369;28;20519;-71